Time;durP1;ratioP1;P1;durP2;ratioP2;P2;SDS_P1;SDS_P2;PMS_P1;PMS_P2;Temp;Humidity;BMP_temperature;BMP_pressure;BME280_temperature;BME280_humidity;BME280_pressure;Samples;Min_cycle;Max_cycle;Signal;HPM_P1;HPM_P2
2022/06/19 00:01:57;;;;;;;;;1.00;0.00;;;;;17.23;46.86;101157.25;5011718;28;8823;-67
2022/06/19 00:04:25;;;;;;;;;0.00;0.00;;;;;17.23;48.34;101151.81;5015494;28;8843;-66
2022/06/19 00:06:52;;;;;;;;;1.67;1.00;;;;;17.21;49.07;101156.63;5029861;28;8841;-66
2022/06/19 00:09:19;;;;;;;;;0.00;0.00;;;;;17.20;49.94;101165.03;5020978;28;9075;-67
2022/06/19 00:11:46;;;;;;;;;0.25;0.00;;;;;17.21;50.04;101170.25;5008811;28;8840;-66
2022/06/19 00:14:12;;;;;;;;;0.00;0.00;;;;;17.30;50.25;101177.03;5031380;28;8880;-67
2022/06/19 00:16:39;;;;;;;;;0.00;0.00;;;;;17.36;50.26;101183.44;5030967;28;8849;-67
2022/06/19 00:19:06;;;;;;;;;0.00;0.00;;;;;17.30;50.91;101185.22;5026467;28;8830;-67
2022/06/19 00:21:33;;;;;;;;;0.00;0.00;;;;;17.38;51.24;101194.09;5030362;28;8821;-66
2022/06/19 00:24:00;;;;;;;;;2.00;0.00;;;;;17.38;51.98;101178.59;5023247;28;8891;-67
2022/06/19 00:26:26;;;;;;;;;0.00;0.00;;;;;17.37;52.26;101195.97;5030274;28;8978;-68
2022/06/19 00:28:53;;;;;;;;;0.00;0.00;;;;;17.41;52.66;101212.69;5025836;28;9723;-67
2022/06/19 00:31:20;;;;;;;;;0.25;0.00;;;;;17.48;52.62;101256.97;5029434;28;8845;-68
2022/06/19 00:33:46;;;;;;;;;0.00;0.00;;;;;17.50;52.75;101284.78;4993461;28;8946;-68
2022/06/19 00:36:13;;;;;;;;;0.75;0.00;;;;;17.49;52.03;101294.84;5027664;28;8826;-67
2022/06/19 00:38:39;;;;;;;;;0.75;0.75;;;;;17.39;51.57;101324.50;5024015;28;8841;-68
2022/06/19 00:41:06;;;;;;;;;0.25;0.00;;;;;17.29;51.34;101354.94;5030516;28;8854;-67
2022/06/19 00:43:55;;;;;;;;;1.00;1.00;;;;;17.20;51.04;101378.06;5024541;28;8856;-67
2022/06/19 00:46:39;;;;;;;;;1.00;0.00;;;;;17.07;50.11;101352.91;5025361;28;8821;-67
2022/06/19 00:49:11;;;;;;;;;0.50;0.25;;;;;16.98;48.87;101308.84;5025657;28;9599;-68
2022/06/19 00:51:38;;;;;;;;;1.00;0.00;;;;;16.93;47.99;101284.19;5023426;28;9553;-67
2022/06/19 00:54:06;;;;;;;;;0.00;0.00;;;;;16.93;47.76;101273.31;5027103;28;9710;-67
2022/06/19 00:56:33;;;;;;;;;0.00;0.00;;;;;16.89;48.12;101269.38;5026538;28;8926;-67
2022/06/19 00:58:59;;;;;;;;;0.00;0.00;;;;;16.78;48.08;101258.22;5025027;28;8902;-68
2022/06/19 01:01:27;;;;;;;;;0.00;0.00;;;;;16.75;48.40;101246.97;5028471;28;8993;-67
2022/06/19 01:04:02;;;;;;;;;0.00;0.00;;;;;16.66;49.12;101216.50;5012314;28;8842;-68
2022/06/19 01:06:29;;;;;;;;;0.00;0.00;;;;;16.62;49.34;101220.72;5030089;28;8919;-67
2022/06/19 01:08:57;;;;;;;;;0.00;0.00;;;;;16.58;49.58;101224.94;5028575;28;8923;-67
2022/06/19 01:11:28;;;;;;;;;0.00;0.00;;;;;16.63;49.54;101256.88;5003495;28;9604;-68
2022/06/19 01:13:55;;;;;;;;;0.00;0.00;;;;;16.69;49.84;101256.81;5029085;28;9669;-67
2022/06/19 01:16:22;;;;;;;;;0.00;0.00;;;;;16.83;49.51;101281.19;5021370;28;9029;-67
2022/06/19 01:18:49;;;;;;;;;0.00;0.00;;;;;16.82;49.97;101285.78;5017936;28;9052;-67
2022/06/19 01:21:19;;;;;;;;;0.00;0.00;;;;;16.78;50.04;101293.56;5029249;28;9532;-67
2022/06/19 01:23:53;;;;;;;;;0.00;0.00;;;;;16.75;50.79;101293.19;5029028;28;9674;-68
2022/06/19 01:26:22;;;;;;;;;0.00;0.00;;;;;16.67;51.08;101283.38;5028803;28;8902;-68
2022/06/19 01:28:56;;;;;;;;;3.00;0.00;;;;;16.61;51.34;101272.56;5028537;28;9693;-68
2022/06/19 01:31:32;;;;;;;;;0.00;0.00;;;;;16.55;51.92;101274.31;5021168;28;8953;-68
2022/06/19 01:37:03;;;;;;;;;0.00;0.00;;;;;16.60;52.44;101266.31;5009778;28;8988;-66
2022/06/19 01:39:48;;;;;;;;;1.00;1.00;;;;;16.61;52.58;101273.41;5029724;28;8919;-67
2022/06/19 01:42:15;;;;;;;;;0.00;0.00;;;;;16.50;53.17;101271.44;5025563;28;9002;-67
2022/06/19 01:44:44;;;;;;;;;1.00;0.67;;;;;16.48;53.45;101268.91;5015604;28;8946;-67
2022/06/19 01:47:12;;;;;;;;;0.00;0.00;;;;;16.49;53.70;101267.88;5032714;28;8900;-67
2022/06/19 01:49:44;;;;;;;;;2.67;0.67;;;;;16.51;53.69;101260.31;5033464;28;8922;-68
2022/06/19 01:52:11;;;;;;;;;1.00;0.00;;;;;16.51;54.11;101238.59;5030301;28;8999;-67
2022/06/19 01:54:42;;;;;;;;;0.00;0.00;;;;;16.58;54.31;101227.66;5026121;28;9883;-66
2022/06/19 01:57:11;;;;;;;;;0.00;0.00;;;;;16.59;54.25;101212.19;5024973;28;9013;-68
2022/06/19 01:59:40;;;;;;;;;2.00;0.00;;;;;16.58;54.01;101208.63;5028686;28;9179;-66
2022/06/19 02:02:10;;;;;;;;;1.00;0.00;;;;;16.58;55.07;101205.91;5031298;28;8895;-67
2022/06/19 02:04:37;;;;;;;;;0.67;0.00;;;;;16.66;54.50;101202.91;5033264;28;9692;-67
2022/06/19 02:07:08;;;;;;;;;1.25;0.00;;;;;16.66;54.45;101213.78;5033139;28;8949;-67
2022/06/19 02:09:35;;;;;;;;;0.00;0.00;;;;;16.63;54.55;101240.56;5010830;28;8897;-67
2022/06/19 02:12:03;;;;;;;;;1.33;1.00;;;;;16.58;54.90;101292.06;5026849;28;8898;-66
2022/06/19 02:14:31;;;;;;;;;1.00;1.00;;;;;16.48;54.89;101357.75;5013509;28;8917;-67
2022/06/19 02:17:03;;;;;;;;;2.00;0.00;;;;;16.51;55.10;101384.50;5013529;28;8933;-67
2022/06/19 02:19:30;;;;;;;;;1.00;0.50;;;;;16.44;55.04;101348.38;5022560;28;8995;-67
2022/06/19 02:21:56;;;;;;;;;1.00;1.00;;;;;16.40;54.63;101292.81;5025759;28;8887;-66
2022/06/19 02:24:26;;;;;;;;;0.00;0.00;;;;;16.36;54.70;101235.38;5013693;28;8987;-67
2022/06/19 02:26:55;;;;;;;;;1.00;0.00;;;;;16.29;54.94;101183.84;5016604;28;8985;-68
2022/06/19 02:29:22;;;;;;;;;1.00;1.00;;;;;16.21;54.72;101124.38;5020870;28;8833;-67
2022/06/19 02:31:51;;;;;;;;;0.00;0.00;;;;;16.19;55.30;101093.03;5019243;28;9060;-67
2022/06/19 02:34:32;;;;;;;;;0.67;0.67;;;;;16.23;55.07;101152.13;5013646;28;9045;-66
2022/06/19 02:37:01;;;;;;;;;1.33;0.00;;;;;16.30;54.53;101192.81;5013676;28;8995;-66
2022/06/19 02:39:37;;;;;;;;;0.33;0.00;;;;;16.30;54.65;101291.44;5033245;28;8994;-67
2022/06/19 02:42:28;;;;;;;;;0.33;0.00;;;;;16.40;54.25;101448.53;5033255;28;8915;-67
2022/06/19 02:44:57;;;;;;;;;1.00;1.00;;;;;16.53;54.30;101500.13;5024962;28;9111;-67
2022/06/19 02:47:25;;;;;;;;;0.00;0.00;;;;;16.64;53.31;101411.59;5031807;28;8979;-67
2022/06/19 02:49:53;;;;;;;;;0.00;0.00;;;;;16.56;52.81;101254.22;5032852;28;8901;-67
2022/06/19 02:52:20;;;;;;;;;1.00;0.00;;;;;16.46;53.51;101189.53;5032356;28;8993;-66
2022/06/19 02:54:47;;;;;;;;;0.00;0.00;;;;;16.46;53.36;101158.81;5032394;28;9792;-67
2022/06/19 02:57:14;;;;;;;;;0.00;0.00;;;;;16.29;54.31;101055.34;5031742;28;8973;-66
2022/06/19 02:59:41;;;;;;;;;0.00;0.00;;;;;16.27;54.98;101031.09;5029857;28;8933;-67
2022/06/19 03:02:09;;;;;;;;;0.00;0.00;;;;;16.25;55.75;101046.81;5032705;28;8817;-67
2022/06/19 03:04:41;;;;;;;;;1.00;0.67;;;;;16.09;57.24;101003.13;5012834;28;9665;-67
2022/06/19 03:07:07;;;;;;;;;0.67;0.67;;;;;16.04;58.64;100965.78;5012341;28;8980;-68
2022/06/19 03:09:34;;;;;;;;;0.00;0.00;;;;;16.04;58.68;100944.03;5022226;28;8919;-67
2022/06/19 03:12:01;;;;;;;;;4.33;3.00;;;;;16.03;58.94;100970.38;5029857;28;9103;-67
2022/06/19 03:14:27;;;;;;;;;2.33;0.67;;;;;15.96;59.49;100957.94;5023848;28;9113;-66
2022/06/19 03:16:54;;;;;;;;;2.00;1.00;;;;;15.94;61.02;100981.78;5031806;28;9079;-67
2022/06/19 03:19:20;;;;;;;;;0.00;0.00;;;;;15.96;61.79;100980.50;5031346;28;9039;-67
2022/06/19 03:21:49;;;;;;;;;1.00;1.00;;;;;15.98;62.19;100958.53;5031810;28;9619;-67
2022/06/19 03:24:15;;;;;;;;;1.00;1.00;;;;;15.82;62.83;100952.66;5031796;28;8982;-66
2022/06/19 03:26:42;;;;;;;;;0.33;0.00;;;;;15.75;63.99;100941.03;5025460;28;9074;-67
2022/06/19 03:29:08;;;;;;;;;3.00;0.00;;;;;15.72;63.46;100941.50;5018891;28;9049;-66
2022/06/19 03:31:35;;;;;;;;;1.33;1.33;;;;;15.67;62.75;100948.66;5031644;28;9041;-67
2022/06/19 03:34:02;;;;;;;;;1.67;0.00;;;;;15.72;62.70;100984.94;5032018;28;9058;-67
2022/06/19 03:36:29;;;;;;;;;2.00;1.00;;;;;15.73;61.21;100989.31;5027406;28;9228;-67
2022/06/19 03:38:56;;;;;;;;;2.00;0.67;;;;;15.74;59.83;100992.84;5028884;28;8996;-66
2022/06/19 03:41:23;;;;;;;;;0.00;0.00;;;;;15.76;60.20;101010.59;5031365;28;8923;-67
2022/06/19 03:43:49;;;;;;;;;0.00;0.00;;;;;15.89;60.10;101019.63;5031515;28;8919;-67
2022/06/19 03:46:19;;;;;;;;;0.00;0.00;;;;;15.99;59.50;101017.22;5031326;28;8944;-67
2022/06/19 03:48:47;;;;;;;;;0.00;0.00;;;;;15.99;59.29;101033.50;5031332;28;9180;-67
2022/06/19 03:51:16;;;;;;;;;0.00;0.00;;;;;16.04;59.46;101028.22;5021546;28;9077;-67
2022/06/19 03:53:45;;;;;;;;;0.00;0.00;;;;;16.09;59.68;101009.38;5018074;28;9856;-66
2022/06/19 03:56:18;;;;;;;;;1.00;1.00;;;;;16.16;59.88;101031.00;5025610;28;9056;-66
2022/06/19 03:58:48;;;;;;;;;0.00;0.00;;;;;16.24;59.73;101042.41;5031203;28;9135;-67
2022/06/19 04:01:23;;;;;;;;;0.67;0.67;;;;;16.28;59.58;101038.19;5031460;28;8915;-64
2022/06/19 04:03:51;;;;;;;;;0.00;0.00;;;;;16.23;59.92;101008.16;5030115;28;9035;-66
2022/06/19 04:06:20;;;;;;;;;1.00;1.00;;;;;16.18;60.07;101013.44;5028160;28;9015;-65
2022/06/19 04:08:47;;;;;;;;;0.67;0.00;;;;;16.27;60.46;101036.53;5030247;28;9069;-67
2022/06/19 04:11:16;;;;;;;;;0.00;0.00;;;;;16.26;60.21;100999.56;5022952;28;8992;-66
2022/06/19 04:13:43;;;;;;;;;0.00;0.00;;;;;16.31;60.64;101009.75;5031110;28;9763;-66
2022/06/19 04:16:15;;;;;;;;;0.00;0.00;;;;;16.37;61.04;100968.09;5030818;28;9017;-66
2022/06/19 04:18:42;;;;;;;;;0.00;0.00;;;;;16.28;60.95;100956.69;5030595;28;9129;-66
2022/06/19 04:21:13;;;;;;;;;0.00;0.00;;;;;16.19;61.08;100957.25;5025793;28;8996;-65
2022/06/19 04:23:40;;;;;;;;;0.00;0.00;;;;;16.15;61.01;100921.56;5029858;28;9587;-65
2022/06/19 04:26:09;;;;;;;;;0.00;0.00;;;;;16.03;60.81;100874.50;5029274;28;9091;-66
2022/06/19 04:28:36;;;;;;;;;1.33;1.33;;;;;15.94;61.44;101019.78;5025954;28;9076;-67
2022/06/19 04:31:03;;;;;;;;;1.00;0.00;;;;;15.90;60.92;101016.69;5030350;28;9293;-67
2022/06/19 04:33:32;;;;;;;;;0.33;0.33;;;;;15.92;61.68;101016.44;5026407;28;9045;-67
2022/06/19 04:35:58;;;;;;;;;0.00;0.00;;;;;15.93;62.64;101001.84;5025605;28;9575;-67
2022/06/19 04:38:25;;;;;;;;;0.33;0.00;;;;;15.87;63.56;101019.03;5020202;28;8851;-67
2022/06/19 04:40:51;;;;;;;;;0.00;0.00;;;;;15.87;64.21;101024.44;5022723;28;8992;-65
2022/06/19 04:43:18;;;;;;;;;1.00;0.00;;;;;15.70;63.82;101014.16;5030628;28;9916;-66
2022/06/19 04:45:44;;;;;;;;;1.00;1.00;;;;;15.62;64.64;101021.75;5030302;28;9165;-66
2022/06/19 04:48:10;;;;;;;;;1.00;1.00;;;;;15.53;65.06;101049.16;5012596;28;9047;-65
2022/06/19 04:50:37;;;;;;;;;1.33;1.33;;;;;15.46;64.82;101061.94;5030188;28;9047;-66
2022/06/19 04:53:03;;;;;;;;;0.00;0.00;;;;;15.38;65.21;101077.66;5020982;28;9082;-65
2022/06/19 04:55:30;;;;;;;;;1.00;0.00;;;;;15.32;64.81;101099.19;5010042;28;9208;-67
2022/06/19 04:58:03;;;;;;;;;1.00;1.00;;;;;15.26;65.04;101112.78;5010265;28;9258;-66
2022/06/19 05:00:31;;;;;;;;;0.00;0.00;;;;;15.17;65.34;101117.66;5025868;28;9201;-67
2022/06/19 05:02:57;;;;;;;;;3.00;1.00;;;;;15.20;65.34;101092.00;5030214;28;9104;-66
2022/06/19 05:05:24;;;;;;;;;3.00;1.00;;;;;15.17;65.01;101104.09;5027570;28;9147;-66
2022/06/19 05:07:51;;;;;;;;;0.00;0.00;;;;;15.10;65.11;101089.75;5029959;28;9246;-66
2022/06/19 05:10:18;;;;;;;;;2.00;1.00;;;;;15.08;65.27;101103.53;5029710;28;9235;-65
2022/06/19 05:12:44;;;;;;;;;0.00;0.00;;;;;15.14;65.62;101092.84;5029968;28;9074;-65
2022/06/19 05:15:11;;;;;;;;;0.00;0.00;;;;;15.16;65.34;101085.34;5013324;28;9102;-67
2022/06/19 05:17:37;;;;;;;;;0.00;0.00;;;;;15.18;65.15;101086.75;5010114;28;9209;-66
2022/06/19 05:20:05;;;;;;;;;0.00;0.00;;;;;15.18;65.17;101096.78;5018118;28;9077;-65
2022/06/19 05:22:33;;;;;;;;;1.00;1.00;;;;;15.21;65.05;101108.03;5025730;28;9225;-66
2022/06/19 05:24:59;;;;;;;;;1.00;1.00;;;;;15.18;65.03;101111.16;5025491;28;9217;-67
2022/06/19 05:27:27;;;;;;;;;2.00;1.00;;;;;15.15;64.81;101105.34;5029225;28;9258;-65
2022/06/19 05:29:53;;;;;;;;;3.33;0.00;;;;;15.17;65.41;101119.53;5029536;28;9455;-67
2022/06/19 05:32:20;;;;;;;;;1.00;1.00;;;;;15.19;65.11;101126.41;5029490;28;9168;-66
2022/06/19 05:34:47;;;;;;;;;2.00;0.00;;;;;15.24;65.42;101123.88;5026391;28;9177;-66
2022/06/19 05:37:14;;;;;;;;;2.00;1.00;;;;;15.27;65.16;101131.59;4999079;28;9181;-67
2022/06/19 05:39:41;;;;;;;;;0.67;0.67;;;;;15.32;65.30;101129.03;5018573;28;9077;-65
2022/06/19 05:42:08;;;;;;;;;0.00;0.00;;;;;15.37;64.77;101132.97;5029610;28;9074;-66
2022/06/19 05:44:36;;;;;;;;;0.00;0.00;;;;;15.33;65.29;101155.09;5023362;28;9079;-66
2022/06/19 05:47:03;;;;;;;;;4.00;1.00;;;;;15.34;65.16;101155.94;5021195;28;9164;-66
2022/06/19 05:49:31;;;;;;;;;0.00;0.00;;;;;15.31;65.29;101153.66;5020499;28;9068;-67
2022/06/19 05:51:59;;;;;;;;;2.00;0.00;;;;;15.39;65.28;101128.97;5029278;28;9133;-66
2022/06/19 05:54:28;;;;;;;;;1.00;0.00;;;;;15.41;64.91;101123.34;5024597;28;9096;-66
2022/06/19 05:56:55;;;;;;;;;1.00;1.00;;;;;15.27;65.22;101111.75;5014451;28;9260;-65
2022/06/19 05:59:21;;;;;;;;;0.00;0.00;;;;;15.16;65.20;101090.75;5010302;28;9088;-66
2022/06/19 06:01:48;;;;;;;;;1.67;1.00;;;;;15.07;66.18;101090.19;5028536;28;9224;-67
2022/06/19 06:04:14;;;;;;;;;1.00;1.00;;;;;15.09;66.07;101107.88;5028392;28;8987;-66
2022/06/19 06:06:41;;;;;;;;;0.33;0.00;;;;;15.06;66.13;101123.75;5025949;28;9273;-66
2022/06/19 06:09:11;;;;;;;;;1.00;1.00;;;;;15.02;65.93;101144.22;5018512;28;9190;-66
2022/06/19 06:11:38;;;;;;;;;3.00;1.33;;;;;15.02;66.17;101139.63;5029240;28;9145;-65
2022/06/19 06:14:04;;;;;;;;;0.00;0.00;;;;;15.09;66.10;101147.72;5028390;28;9247;-66
2022/06/19 06:16:31;;;;;;;;;1.00;1.00;;;;;15.17;65.63;101158.31;5021683;28;9253;-65
2022/06/19 06:18:57;;;;;;;;;0.67;0.67;;;;;15.15;64.67;101176.72;5029282;28;9160;-66
2022/06/19 06:21:25;;;;;;;;;0.00;0.00;;;;;15.12;64.92;101198.81;5019418;28;9180;-66
2022/06/19 06:23:53;;;;;;;;;1.00;1.00;;;;;15.07;65.07;101201.34;5020086;28;9081;-66
2022/06/19 06:26:23;;;;;;;;;1.00;0.33;;;;;15.13;65.07;101219.47;5021841;28;9189;-67
2022/06/19 06:28:51;;;;;;;;;3.00;1.00;;;;;15.27;65.25;101247.34;5030181;28;9155;-65
2022/06/19 06:31:18;;;;;;;;;1.00;1.00;;;;;15.38;64.83;101256.69;5015952;28;9394;-66
2022/06/19 06:33:45;;;;;;;;;1.00;1.00;;;;;15.44;64.60;101255.84;5022194;28;9218;-66
2022/06/19 06:36:11;;;;;;;;;0.00;0.00;;;;;15.42;63.87;101255.22;5032323;28;9239;-66
2022/06/19 06:38:38;;;;;;;;;0.33;0.33;;;;;15.36;63.30;101261.53;5032632;28;9250;-66
2022/06/19 06:41:07;;;;;;;;;1.00;1.00;;;;;15.37;63.88;101274.03;5027994;28;9211;-66
2022/06/19 06:43:38;;;;;;;;;1.00;0.00;;;;;15.32;63.33;101280.09;5020622;28;9160;-67
2022/06/19 06:46:06;;;;;;;;;0.33;0.00;;;;;15.30;63.49;101307.44;5012736;28;9221;-67
2022/06/19 06:48:33;;;;;;;;;1.00;1.00;;;;;15.32;63.55;101327.03;5024521;28;9159;-66
2022/06/19 06:51:04;;;;;;;;;1.00;1.00;;;;;15.37;63.54;101331.00;5025219;28;9776;-66
2022/06/19 06:53:31;;;;;;;;;0.67;0.67;;;;;15.39;63.27;101329.72;5031940;28;9238;-66
2022/06/19 06:55:57;;;;;;;;;2.00;0.00;;;;;15.41;63.17;101324.09;5032536;28;9239;-68
2022/06/19 06:58:24;;;;;;;;;0.33;0.00;;;;;15.43;62.82;101330.13;5031922;28;9223;-66
2022/06/19 07:00:51;;;;;;;;;2.00;2.00;;;;;15.44;62.86;101323.69;5032257;28;9268;-66
2022/06/19 07:03:17;;;;;;;;;1.00;1.00;;;;;15.47;62.40;101334.06;5029768;28;9219;-67
2022/06/19 07:05:44;;;;;;;;;1.00;1.00;;;;;15.43;61.97;101330.13;5020474;28;9228;-68
2022/06/19 07:08:10;;;;;;;;;0.00;0.00;;;;;15.47;62.56;101325.94;5028345;28;9239;-66
2022/06/19 07:10:38;;;;;;;;;0.67;0.67;;;;;15.51;62.43;101314.44;5032319;28;9054;-67
2022/06/19 07:13:05;;;;;;;;;2.00;1.33;;;;;15.53;62.55;101306.09;5032045;28;9155;-68
2022/06/19 07:15:33;;;;;;;;;1.00;1.00;;;;;15.44;62.78;101312.81;5030706;28;9267;-66
2022/06/19 07:17:59;;;;;;;;;1.00;1.00;;;;;15.38;63.41;101321.81;5027678;28;9234;-65
2022/06/19 07:20:26;;;;;;;;;0.00;0.00;;;;;15.42;63.94;101325.75;5016322;28;9248;-66
2022/06/19 07:22:53;;;;;;;;;1.67;0.67;;;;;15.42;64.11;101331.19;5012791;28;9893;-66
2022/06/19 07:25:20;;;;;;;;;0.33;0.33;;;;;15.61;65.32;101333.00;5012728;28;9066;-66
2022/06/19 07:27:48;;;;;;;;;2.00;1.00;;;;;15.51;63.84;101332.59;5027928;28;9903;-66
2022/06/19 07:30:18;;;;;;;;;2.00;1.00;;;;;15.51;64.29;101341.56;5027913;28;9262;-65
2022/06/19 07:32:44;;;;;;;;;3.00;0.33;;;;;15.51;64.43;101340.75;5009011;28;9147;-68
2022/06/19 07:35:11;;;;;;;;;0.00;0.00;;;;;15.40;63.92;101341.44;5026273;28;9316;-66
2022/06/19 07:37:37;;;;;;;;;0.33;0.00;;;;;15.33;64.29;101350.41;5029735;28;9064;-66
2022/06/19 07:40:05;;;;;;;;;2.00;1.00;;;;;15.26;63.60;101359.59;5028834;28;9162;-65
2022/06/19 07:42:31;;;;;;;;;1.67;1.33;;;;;15.18;63.60;101354.41;5026559;28;9955;-65
2022/06/19 07:44:58;;;;;;;;;1.00;0.00;;;;;15.17;63.44;101356.28;5030602;28;9955;-66
2022/06/19 07:50:10;;;;;;;;;1.00;1.00;;;;;15.22;63.54;101361.91;5031578;28;9074;-66
2022/06/19 07:52:38;;;;;;;;;1.00;0.00;;;;;15.30;63.54;101366.28;5031522;28;9174;-65
2022/06/19 07:55:06;;;;;;;;;1.33;1.33;;;;;15.35;63.64;101358.31;5028498;28;9169;-64
2022/06/19 07:57:33;;;;;;;;;0.00;0.00;;;;;15.34;64.00;101360.19;5025514;28;9168;-64
2022/06/19 08:00:00;;;;;;;;;1.00;1.00;;;;;15.34;64.01;101343.94;5028308;28;9144;-64
2022/06/19 08:02:26;;;;;;;;;0.00;0.00;;;;;15.34;63.68;101345.81;5018669;28;9149;-64
2022/06/19 08:04:53;;;;;;;;;0.67;0.00;;;;;15.37;63.85;101339.13;5029610;28;9095;-66
2022/06/19 08:07:20;;;;;;;;;1.33;0.00;;;;;15.40;63.71;101323.28;5014103;28;9946;-66
2022/06/19 08:09:47;;;;;;;;;0.00;0.00;;;;;15.48;63.45;101322.19;5027387;28;9109;-66
2022/06/19 08:12:13;;;;;;;;;0.33;0.33;;;;;15.45;63.29;101315.31;5010601;28;9213;-66
2022/06/19 08:14:40;;;;;;;;;2.00;1.00;;;;;15.40;63.46;101300.75;5030623;28;9205;-67
2022/06/19 08:17:06;;;;;;;;;0.67;0.00;;;;;15.38;63.76;101295.50;5030355;28;9176;-66
2022/06/19 08:19:33;;;;;;;;;1.00;0.00;;;;;15.44;63.63;101282.97;5030197;28;9080;-66
2022/06/19 08:22:00;;;;;;;;;1.00;1.00;;;;;15.49;63.62;101283.97;5024800;28;9246;-65
2022/06/19 08:24:26;;;;;;;;;2.00;1.00;;;;;15.49;64.03;101267.72;5029804;28;9294;-65
2022/06/19 08:27:11;;;;;;;;;0.33;0.33;;;;;15.43;63.83;101267.72;5029729;28;9013;-67
2022/06/19 08:29:37;;;;;;;;;0.00;0.00;;;;;15.45;64.07;101260.22;5029715;28;9051;-66
2022/06/19 08:32:05;;;;;;;;;2.00;1.00;;;;;15.47;64.50;101268.97;5022535;28;10272;-68
2022/06/19 08:34:31;;;;;;;;;1.00;1.00;;;;;15.42;64.04;101264.19;5011027;28;9074;-68
2022/06/19 08:37:01;;;;;;;;;1.00;0.67;;;;;15.41;64.44;101245.44;5027199;28;9270;-67
2022/06/19 08:39:30;;;;;;;;;0.00;0.00;;;;;15.44;64.48;101250.44;5020894;28;9039;-65
2022/06/19 08:42:06;;;;;;;;;1.00;0.00;;;;;15.46;64.10;101251.84;5029088;28;9174;-65
2022/06/19 08:45:05;;;;;;;;;0.00;0.00;;;;;15.53;64.13;101259.97;5027090;28;9080;-66
2022/06/19 08:48:13;;;;;;;;;1.00;0.33;;;;;15.50;64.28;101255.78;4985470;28;9033;-65
2022/06/19 08:50:48;;;;;;;;;0.67;0.67;;;;;15.45;64.48;101261.06;5010557;28;9041;-65
2022/06/19 08:53:40;;;;;;;;;0.00;0.00;;;;;15.38;64.88;101265.66;5029589;28;9147;-67
2022/06/19 08:56:15;;;;;;;;;1.00;1.00;;;;;15.40;65.16;101273.59;5030186;28;9209;-66
2022/06/19 08:59:22;;;;;;;;;0.00;0.00;;;;;15.40;65.17;101276.31;5011371;28;9897;-66
2022/06/19 09:02:21;;;;;;;;;1.00;1.00;;;;;15.33;65.68;101263.59;5010075;28;9273;-66
2022/06/19 09:08:11;;;;;;;;;0.67;0.67;;;;;15.29;65.82;101262.38;5010209;28;9756;-67
2022/06/19 09:11:02;;;;;;;;;1.00;0.00;;;;;15.30;66.19;101263.19;5029314;28;9181;-66
2022/06/19 09:13:53;;;;;;;;;0.00;0.00;;;;;15.28;66.00;101266.13;5030886;28;9792;-68
2022/06/19 09:16:35;;;;;;;;;1.67;0.00;;;;;15.16;65.05;101265.16;5031168;28;9145;-67
2022/06/19 09:19:15;;;;;;;;;2.00;0.00;;;;;15.13;65.05;101278.28;5029299;28;9033;-66
2022/06/19 09:21:59;;;;;;;;;0.00;0.00;;;;;15.18;65.30;101273.06;5023070;28;9241;-68
2022/06/19 09:24:46;;;;;;;;;1.00;1.00;;;;;15.20;65.43;101266.38;5026935;28;9241;-68
2022/06/19 09:27:15;;;;;;;;;2.00;1.00;;;;;15.23;65.35;101256.97;5026768;28;9395;-66
2022/06/19 09:29:54;;;;;;;;;0.67;0.00;;;;;15.21;64.59;101259.06;5028050;28;9348;-65
2022/06/19 09:32:41;;;;;;;;;0.00;0.00;;;;;15.09;63.59;101251.59;5021812;28;9232;-68
2022/06/19 09:35:36;;;;;;;;;0.00;0.00;;;;;15.03;62.84;101241.63;5030217;28;9173;-65
2022/06/19 09:38:20;;;;;;;;;0.00;0.00;;;;;15.00;62.67;101230.38;5030053;28;9333;-67
2022/06/19 09:40:54;;;;;;;;;1.00;0.67;;;;;15.06;62.91;101240.34;5029989;28;9230;-66
2022/06/19 09:43:34;;;;;;;;;0.67;0.67;;;;;15.07;63.17;101229.31;5027904;28;9314;-68
2022/06/19 09:46:20;;;;;;;;;0.00;0.00;;;;;15.18;62.95;101230.50;5026044;28;9236;-67
2022/06/19 09:49:00;;;;;;;;;0.00;0.00;;;;;15.29;63.13;101223.56;5030626;28;9204;-66
2022/06/19 09:51:47;;;;;;;;;0.00;0.00;;;;;15.39;63.12;101221.22;5030358;28;9063;-66
2022/06/19 09:54:42;;;;;;;;;1.00;1.00;;;;;15.54;62.71;101199.22;5012516;28;9094;-66
2022/06/19 09:57:28;;;;;;;;;1.00;1.00;;;;;15.66;63.08;101202.94;5027838;28;9192;-66
2022/06/19 10:00:12;;;;;;;;;2.00;0.67;;;;;15.79;62.66;101231.84;5021630;28;9022;-66
2022/06/19 10:03:03;;;;;;;;;0.00;0.00;;;;;15.87;62.33;101220.72;5018651;28;9994;-65
2022/06/19 10:05:38;;;;;;;;;0.00;0.00;;;;;15.99;62.18;101218.97;5014902;28;9068;-66
2022/06/19 10:08:21;;;;;;;;;2.67;2.67;;;;;15.98;61.85;101205.63;5013528;28;9164;-66
2022/06/19 10:11:15;;;;;;;;;1.67;0.33;;;;;15.99;62.26;101197.25;5028227;28;9056;-65
2022/06/19 10:14:01;;;;;;;;;0.00;0.00;;;;;16.07;61.77;101217.88;5016159;28;9781;-64
2022/06/19 10:16:58;;;;;;;;;0.00;0.00;;;;;16.18;61.87;101225.31;5033346;28;9059;-66
2022/06/19 10:19:37;;;;;;;;;0.67;0.67;;;;;16.27;60.97;101234.81;5033255;28;8915;-65
2022/06/19 10:22:15;;;;;;;;;0.00;0.00;;;;;16.30;61.35;101244.44;5033151;28;9104;-65
2022/06/19 10:24:50;;;;;;;;;1.75;1.00;;;;;16.27;61.14;101267.44;5031317;28;8911;-65
2022/06/19 10:27:58;;;;;;;;;0.00;0.00;;;;;16.17;60.68;101283.41;5032915;28;8871;-65
2022/06/19 10:30:35;;;;;;;;;1.00;0.00;;;;;16.13;61.01;101274.03;4952685;28;9533;-65
2022/06/19 10:33:26;;;;;;;;;0.00;0.00;;;;;16.04;61.09;101262.63;4952299;28;8926;-65
2022/06/19 10:36:08;;;;;;;;;1.00;0.00;;;;;16.06;61.20;101270.53;5009638;28;9256;-65
2022/06/19 10:39:10;;;;;;;;;1.00;0.67;;;;;16.13;61.16;101271.31;5029605;28;9149;-65
2022/06/19 10:42:01;;;;;;;;;1.00;0.00;;;;;16.19;60.81;101278.56;5024648;28;9142;-65
2022/06/19 10:45:02;;;;;;;;;0.25;0.00;;;;;16.23;60.17;101298.81;5014284;28;9001;-65
2022/06/19 10:47:58;;;;;;;;;1.00;0.00;;;;;16.21;60.05;101302.81;5024022;28;8917;-65
2022/06/19 10:50:48;;;;;;;;;0.00;0.00;;;;;16.18;59.93;101289.66;5030669;28;8994;-66
2022/06/19 10:53:51;;;;;;;;;1.00;1.00;;;;;16.23;58.91;101298.81;5024659;28;9098;-67
2022/06/19 10:56:49;;;;;;;;;0.67;0.00;;;;;16.27;59.40;101291.06;5017476;28;8851;-66
2022/06/19 10:59:17;;;;;;;;;0.50;0.00;;;;;16.35;58.88;101270.94;5025077;28;8997;-66
2022/06/19 11:05:02;;;;;;;;;0.00;0.00;;;;;16.41;59.01;101254.59;5033069;28;8896;-64
2022/06/19 11:07:30;;;;;;;;;2.00;1.75;;;;;16.36;58.68;101256.28;5027868;28;8843;-65
2022/06/19 11:10:17;;;;;;;;;0.67;0.33;;;;;16.29;58.80;101270.78;5026821;28;8837;-66
2022/06/19 11:12:48;;;;;;;;;0.00;0.00;;;;;16.30;58.16;101280.56;5027574;28;8891;-65
2022/06/19 11:15:28;;;;;;;;;2.00;2.00;;;;;16.35;57.85;101273.66;5030782;28;8834;-67
2022/06/19 11:18:13;;;;;;;;;0.00;0.00;;;;;16.45;57.70;101257.69;5020677;28;8904;-65
2022/06/19 11:21:06;;;;;;;;;0.00;0.00;;;;;16.60;57.44;101246.44;5018283;28;9509;-65
2022/06/19 11:23:37;;;;;;;;;1.00;0.00;;;;;16.74;57.23;101243.41;5021462;28;8940;-66
2022/06/19 11:26:08;;;;;;;;;0.00;0.00;;;;;16.82;57.68;101238.75;5028139;28;8817;-65
2022/06/19 11:28:53;;;;;;;;;1.00;0.25;;;;;16.84;57.66;101231.19;5027773;28;8919;-65
2022/06/19 11:31:24;;;;;;;;;0.75;0.75;;;;;16.84;57.15;101233.91;5013203;28;8919;-64
2022/06/19 11:37:23;;;;;;;;;0.50;0.50;;;;;17.02;57.03;101255.66;5013794;28;8839;-64
2022/06/19 11:39:59;;;;;;;;;0.00;0.00;;;;;17.17;56.96;101258.81;5016970;28;8918;-65
2022/06/19 11:42:37;;;;;;;;;1.00;1.00;;;;;17.10;56.50;101268.97;5012585;28;8823;-65
2022/06/19 11:45:13;;;;;;;;;0.75;0.75;;;;;17.09;56.30;101280.06;5029379;28;8821;-65
2022/06/19 11:47:43;;;;;;;;;1.00;1.00;;;;;17.09;55.42;101267.28;5031367;28;8872;-65
2022/06/19 11:50:18;;;;;;;;;2.00;1.00;;;;;17.14;55.27;101275.63;5031105;28;9057;-65
2022/06/19 11:53:06;;;;;;;;;0.75;0.75;;;;;17.18;55.76;101290.44;5022078;28;8855;-65
2022/06/19 11:56:14;;;;;;;;;1.00;0.50;;;;;17.24;55.82;101329.47;5015455;28;8937;-65
2022/06/19 11:58:46;;;;;;;;;1.50;1.50;;;;;17.35;55.71;101349.69;4950989;28;8869;-64
2022/06/19 12:01:18;;;;;;;;;1.00;1.00;;;;;17.30;54.34;101362.06;4969099;28;9632;-67
2022/06/19 12:03:49;;;;;;;;;0.00;0.00;;;;;17.39;54.36;101376.22;5004185;28;8818;-64
2022/06/19 12:06:19;;;;;;;;;2.00;0.00;;;;;17.55;54.46;101385.66;5013898;28;8921;-65
2022/06/19 12:08:57;;;;;;;;;0.25;0.25;;;;;17.66;53.63;101378.59;5013055;28;8827;-65
2022/06/19 12:11:42;;;;;;;;;0.25;0.00;;;;;17.84;53.53;101375.06;5011619;28;8902;-66
2022/06/19 12:14:12;;;;;;;;;0.75;0.00;;;;;17.97;52.08;101386.63;5029617;28;8842;-65